Time,TemperatureF,DewpointF,PressureIn,WindDirection,WindDirectionDegrees,WindSpeedMPH,WindSpeedGustMPH,Humidity,HourlyPrecipIn,Conditions,Clouds,dailyrainin,SoftwareType,DateUTC
2013-02-24 00:00:00,69.4,69.1,29.92,South,184,1.0,1.0,99,0.00,,,0.00,Wunderground v.1.13,2013-02-24 05:00:00,
2013-02-24 00:10:00,69.4,69.1,29.92,South,184,0.0,0.0,99,0.00,,,0.00,Wunderground v.1.13,2013-02-24 05:10:00,
2013-02-24 00:20:00,68.9,68.6,29.92,SSW,198,0.0,0.0,99,0.00,,,0.00,Wunderground v.1.13,2013-02-24 05:20:00,
2013-02-24 00:30:00,69.1,69.1,29.93,South,172,0.0,0.0,100,0.00,,,0.00,Wunderground v.1.13,2013-02-24 05:30:00,
2013-02-24 00:40:00,69.1,69.1,29.93,SSE,165,0.0,0.0,100,0.00,,,0.00,Wunderground v.1.13,2013-02-24 05:40:00,
2013-02-24 00:50:00,69.3,69.3,29.92,South,181,1.0,1.0,100,0.00,,,0.00,Wunderground v.1.13,2013-02-24 05:50:00,
2013-02-24 01:00:00,69.3,69.3,29.92,South,180,1.0,6.0,100,0.00,,,0.00,Wunderground v.1.13,2013-02-24 06:00:00,
2013-02-24 01:10:00,69.3,69.3,29.92,South,179,0.0,0.0,100,0.00,,,0.00,Wunderground v.1.13,2013-02-24 06:10:00,
2013-02-24 01:20:00,69.3,69.3,29.91,South,169,0.0,0.0,100,0.00,,,0.00,Wunderground v.1.13,2013-02-24 06:20:00,
2013-02-24 01:30:00,69.4,69.4,29.91,South,188,1.0,1.0,100,0.00,,,0.00,Wunderground v.1.13,2013-02-24 06:30:00,
2013-02-24 01:40:00,69.4,69.4,29.91,South,178,0.0,0.0,100,0.00,,,0.00,Wunderground v.1.13,2013-02-24 06:40:00,
2013-02-24 01:50:00,69.4,69.4,29.90,South,176,0.0,0.0,100,0.00,,,0.00,Wunderground v.1.13,2013-02-24 06:50:00,
2013-02-24 02:00:00,69.4,69.4,29.90,SSW,209,0.0,0.0,100,0.00,,,0.00,Wunderground v.1.13,2013-02-24 07:00:00,
2013-02-24 02:10:00,69.4,69.4,29.90,SSE,168,0.0,0.0,100,0.00,,,0.00,Wunderground v.1.13,2013-02-24 07:10:00,
2013-02-24 02:20:00,69.3,69.3,29.89,SSW,209,0.0,2.0,100,0.00,,,0.00,Wunderground v.1.13,2013-02-24 07:20:00,
2013-02-24 02:30:00,69.4,69.4,29.89,South,189,0.0,0.0,100,0.00,,,0.00,Wunderground v.1.13,2013-02-24 07:30:00,
2013-02-24 02:40:00,69.6,69.6,29.89,South,179,1.0,1.0,100,0.00,,,0.00,Wunderground v.1.13,2013-02-24 07:40:00,
2013-02-24 02:50:00,69.8,69.8,29.89,South,182,0.0,0.0,100,0.00,,,0.00,Wunderground v.1.13,2013-02-24 07:50:00,
2013-02-24 03:00:00,69.8,69.8,29.88,SSW,193,0.0,0.0,100,0.00,,,0.00,Wunderground v.1.13,2013-02-24 08:00:00,
2013-02-24 03:10:00,69.8,69.8,29.88,South,172,1.0,1.0,100,0.00,,,0.00,Wunderground v.1.13,2013-02-24 08:10:00,
2013-02-24 03:20:00,69.8,69.8,29.87,South,189,1.0,1.0,100,0.00,,,0.00,Wunderground v.1.13,2013-02-24 08:20:00,
2013-02-24 03:30:00,69.8,69.8,29.88,SE,124,2.0,2.0,100,0.00,,,0.00,Wunderground v.1.13,2013-02-24 08:30:00,
2013-02-24 03:40:00,69.9,69.9,29.88,South,186,0.0,0.0,100,0.00,,,0.00,Wunderground v.1.13,2013-02-24 08:40:00,
2013-02-24 03:50:00,69.9,69.9,29.87,South,172,0.0,0.0,100,0.00,,,0.00,Wunderground v.1.13,2013-02-24 08:50:00,
2013-02-24 04:00:00,69.9,69.9,29.88,SW,226,0.0,0.0,100,0.00,,,0.00,Wunderground v.1.13,2013-02-24 09:00:00,
2013-02-24 04:10:00,69.9,69.9,29.88,SW,226,0.0,0.0,100,0.00,,,0.00,Wunderground v.1.13,2013-02-24 09:10:00,
2013-02-24 04:20:00,70.1,70.1,29.88,SW,226,0.0,0.0,100,0.00,,,0.00,Wunderground v.1.13,2013-02-24 09:20:00,
2013-02-24 04:30:00,70.3,70.3,29.89,SW,224,0.0,0.0,100,0.00,,,0.00,Wunderground v.1.13,2013-02-24 09:30:00,
2013-02-24 04:40:00,70.3,70.3,29.89,SW,236,0.0,0.0,100,0.00,,,0.00,Wunderground v.1.13,2013-02-24 09:40:00,
2013-02-24 04:50:00,69.9,69.9,29.90,SW,236,0.0,0.0,100,0.00,,,0.00,Wunderground v.1.13,2013-02-24 09:50:00,
2013-02-24 05:00:00,69.9,69.9,29.90,SW,234,0.0,0.0,100,0.00,,,0.00,Wunderground v.1.13,2013-02-24 10:00:00,
2013-02-24 05:10:00,69.6,69.6,29.90,WSW,240,0.0,0.0,100,0.00,,,0.00,Wunderground v.1.13,2013-02-24 10:10:00,
2013-02-24 05:20:00,69.3,69.3,29.90,SW,216,0.0,0.0,100,0.00,,,0.00,Wunderground v.1.13,2013-02-24 10:20:00,
2013-02-24 05:30:00,69.1,69.1,29.90,SW,230,0.0,0.0,100,0.00,,,0.00,Wunderground v.1.13,2013-02-24 10:30:00,
2013-02-24 05:40:00,69.1,69.1,29.90,SW,216,0.0,0.0,100,0.00,,,0.00,Wunderground v.1.13,2013-02-24 10:40:00,
2013-02-24 05:50:00,68.9,68.9,29.91,SW,216,0.0,0.0,100,0.00,,,0.00,Wunderground v.1.13,2013-02-24 10:50:00,
2013-02-24 06:00:00,68.8,68.8,29.91,SW,222,1.0,1.0,100,0.00,,,0.00,Wunderground v.1.13,2013-02-24 11:00:00,
2013-02-24 06:10:00,68.8,68.8,29.91,SW,223,0.0,0.0,100,0.00,,,0.00,Wunderground v.1.13,2013-02-24 11:10:00,
2013-02-24 06:20:00,68.8,68.8,29.91,SW,227,0.0,0.0,100,0.00,,,0.00,Wunderground v.1.13,2013-02-24 11:20:00,
2013-02-24 06:30:00,68.8,68.8,29.91,SSW,209,0.0,0.0,100,0.00,,,0.00,Wunderground v.1.13,2013-02-24 11:30:00,
2013-02-24 06:40:00,68.9,68.9,29.91,SSW,205,0.0,0.0,100,0.00,,,0.00,Wunderground v.1.13,2013-02-24 11:40:00,
2013-02-24 06:50:00,69.1,69.1,29.93,SSW,200,0.0,0.0,100,0.00,,,0.00,Wunderground v.1.13,2013-02-24 11:50:00,
2013-02-24 07:00:00,69.3,69.3,29.93,SW,233,0.0,0.0,100,0.00,,,0.00,Wunderground v.1.13,2013-02-24 12:00:00,
2013-02-24 07:10:00,69.3,69.3,29.93,South,186,0.0,0.0,100,0.00,,,0.00,Wunderground v.1.13,2013-02-24 12:10:00,
2013-02-24 07:20:00,69.3,69.3,29.93,South,191,0.0,0.0,100,0.00,,,0.00,Wunderground v.1.13,2013-02-24 12:20:00,
2013-02-24 07:30:00,-999.9,-99.9,29.93,South,180,1.0,4.0,-32768,0.00,,,0.00,Wunderground v.1.13,2013-02-24 12:30:00,
2013-02-24 07:40:00,-999.9,-99.9,29.93,North,32767,-999.0,0.0,255,-99.99,,,0.00,Wunderground v.1.13,2013-02-24 12:40:00,
2013-02-24 07:50:00,69.3,-99.9,29.94,SW,230,0.0,0.0,255,0.00,,,0.00,Wunderground v.1.13,2013-02-24 12:50:00,
2013-02-24 08:00:00,69.3,-99.9,29.94,SW,222,0.0,0.0,255,0.00,,,0.00,Wunderground v.1.13,2013-02-24 13:00:00,
2013-02-24 08:10:00,69.3,-99.9,29.94,SSW,193,0.0,0.0,255,0.00,,,0.00,Wunderground v.1.13,2013-02-24 13:10:00,
2013-02-24 08:20:00,-999.9,-99.9,29.95,North,32767,-999.0,0.0,255,-99.99,,,0.00,Wunderground v.1.13,2013-02-24 13:20:00,
2013-02-24 08:30:00,-999.9,-99.9,29.95,North,32767,-999.0,0.0,255,-99.99,,,0.00,Wunderground v.1.13,2013-02-24 13:30:00,
2013-02-24 08:40:00,-999.9,-99.9,29.95,North,32767,-999.0,0.0,255,-99.99,,,0.00,Wunderground v.1.13,2013-02-24 13:40:00,
2013-02-24 08:50:00,-999.9,-99.9,29.95,North,32767,-999.0,0.0,255,-99.99,,,0.00,Wunderground v.1.13,2013-02-24 13:50:00,
2013-02-24 09:00:00,71.1,71.1,29.94,South,181,0.0,4.0,100,0.00,,,0.00,Wunderground v.1.13,2013-02-24 14:00:00,
2013-02-24 09:10:00,71.1,71.1,29.94,WSW,237,1.0,1.0,100,0.00,,,0.00,Wunderground v.1.13,2013-02-24 14:10:00,
2013-02-24 09:20:00,71.5,71.5,29.94,South,191,0.0,0.0,100,0.00,,,0.00,Wunderground v.1.13,2013-02-24 14:20:00,
2013-02-24 09:30:00,72.1,72.1,29.95,SW,226,0.0,0.0,100,0.00,,,0.00,Wunderground v.1.13,2013-02-24 14:30:00,
2013-02-24 09:40:00,72.7,72.7,29.95,South,188,1.0,1.0,100,0.00,,,0.00,Wunderground v.1.13,2013-02-24 14:40:00,
2013-02-24 09:50:00,72.8,72.2,29.95,WSW,257,3.0,4.0,98,0.00,,,0.00,Wunderground v.1.13,2013-02-24 14:50:00,
2013-02-24 10:00:00,73.2,72.3,29.95,SW,232,1.0,2.0,97,0.00,,,0.00,Wunderground v.1.13,2013-02-24 15:00:00,
2013-02-24 10:10:00,-999.9,-99.9,29.95,North,32767,-999.0,0.0,255,-99.99,,,0.00,Wunderground v.1.13,2013-02-24 15:10:00,
2013-02-24 10:20:00,-999.9,-99.9,29.95,North,32767,-999.0,0.0,255,-99.99,,,0.00,Wunderground v.1.13,2013-02-24 15:20:00,
2013-02-24 10:30:00,74.6,-99.9,29.95,SW,229,1.0,1.0,255,0.00,,,0.00,Wunderground v.1.13,2013-02-24 15:30:00,
2013-02-24 10:40:00,74.9,-99.9,29.95,WSW,256,3.0,4.0,255,0.00,,,0.00,Wunderground v.1.13,2013-02-24 15:40:00,
2013-02-24 10:50:00,74.7,-99.9,29.95,WNW,282,2.0,2.0,255,0.00,,,0.00,Wunderground v.1.13,2013-02-24 15:50:00,
2013-02-24 11:00:00,74.7,-99.9,29.96,WSW,253,1.0,1.0,255,0.00,,,0.00,Wunderground v.1.13,2013-02-24 16:00:00,
2013-02-24 11:10:00,74.7,-99.9,29.96,SW,217,0.0,0.0,255,0.00,,,0.00,Wunderground v.1.13,2013-02-24 16:10:00,
2013-02-24 11:20:00,74.9,-99.9,29.96,West,260,0.0,0.0,255,0.00,,,0.00,Wunderground v.1.13,2013-02-24 16:20:00,
2013-02-24 11:30:00,74.9,-99.9,29.96,West,270,1.0,1.0,255,0.00,,,0.00,Wunderground v.1.13,2013-02-24 16:30:00,
2013-02-24 11:40:00,75.1,70.6,29.96,WSW,251,2.0,2.0,86,0.00,,,0.00,Wunderground v.1.13,2013-02-24 16:40:00,
2013-02-24 11:50:00,75.3,70.8,29.95,West,261,0.0,0.0,86,0.00,,,0.00,Wunderground v.1.13,2013-02-24 16:50:00,
2013-02-24 12:00:00,75.3,70.8,29.95,West,261,0.0,0.0,86,0.00,,,0.00,Wunderground v.1.13,2013-02-24 17:00:00,
2013-02-24 12:10:00,75.3,70.8,29.95,West,271,1.0,7.0,86,0.00,,,0.00,Wunderground v.1.13,2013-02-24 17:10:00,
2013-02-24 12:20:00,74.4,70.3,29.95,WSW,244,4.0,4.0,87,0.00,,,0.00,Wunderground v.1.13,2013-02-24 17:20:00,
2013-02-24 12:30:00,74.4,70.3,29.95,WNW,282,2.0,2.0,87,0.00,,,0.00,Wunderground v.1.13,2013-02-24 17:30:00,
2013-02-24 12:40:00,74.6,70.1,29.95,West,264,1.0,1.0,86,0.00,,,0.00,Wunderground v.1.13,2013-02-24 17:40:00,
2013-02-24 12:50:00,74.6,70.1,29.95,SSW,192,2.0,2.0,86,0.00,,,0.00,Wunderground v.1.13,2013-02-24 17:50:00,
2013-02-24 13:00:00,74.6,70.1,29.94,WSW,248,0.0,0.0,86,0.00,,,0.00,Wunderground v.1.13,2013-02-24 18:00:00,
2013-02-24 13:10:00,74.6,70.1,29.94,NW,320,0.0,0.0,86,0.00,,,0.00,Wunderground v.1.13,2013-02-24 18:10:00,
2013-02-24 13:20:00,73.5,69.1,29.94,NW,323,0.0,0.0,86,0.00,,,0.00,Wunderground v.1.13,2013-02-24 18:20:00,
2013-02-24 13:30:00,72.8,69.4,29.94,WNW,299,0.0,0.0,89,0.00,,,0.00,Wunderground v.1.13,2013-02-24 18:30:00,
2013-02-24 13:40:00,72.5,69.4,29.94,NW,325,0.0,0.0,90,0.00,,,0.00,Wunderground v.1.13,2013-02-24 18:40:00,
2013-02-24 13:50:00,72.0,68.9,29.93,NW,312,0.0,0.0,90,0.00,,,0.00,Wunderground v.1.13,2013-02-24 18:50:00,
2013-02-24 14:00:00,71.6,69.2,29.94,NW,312,0.0,0.0,92,0.00,,,0.00,Wunderground v.1.13,2013-02-24 19:00:00,
2013-02-24 14:10:00,71.6,69.2,29.94,NW,312,0.0,0.0,92,0.00,,,0.00,Wunderground v.1.13,2013-02-24 19:10:00,
2013-02-24 14:20:00,71.1,69.0,29.92,NW,312,0.0,0.0,93,0.00,,,0.00,Wunderground v.1.13,2013-02-24 19:20:00,
2013-02-24 14:30:00,70.9,68.8,29.93,NW,312,0.0,0.0,93,0.00,,,0.00,Wunderground v.1.13,2013-02-24 19:30:00,
2013-02-24 14:40:00,70.8,68.7,29.93,NW,312,0.0,0.0,93,0.00,,,0.00,Wunderground v.1.13,2013-02-24 19:40:00,
2013-02-24 14:50:00,70.8,69.0,29.92,NW,312,0.0,0.0,94,0.00,,,0.00,Wunderground v.1.13,2013-02-24 19:50:00,
2013-02-24 15:00:00,70.9,69.1,29.92,NW,312,0.0,0.0,94,0.00,,,0.00,Wunderground v.1.13,2013-02-24 20:00:00,
2013-02-24 15:10:00,70.9,69.1,29.92,NW,312,0.0,0.0,94,0.00,,,0.00,Wunderground v.1.13,2013-02-24 20:10:00,
2013-02-24 15:20:00,70.9,69.4,29.91,NW,312,0.0,0.0,95,0.00,,,0.00,Wunderground v.1.13,2013-02-24 20:20:00,
2013-02-24 15:30:00,71.5,69.7,29.91,NW,312,0.0,0.0,94,0.00,,,0.00,Wunderground v.1.13,2013-02-24 20:30:00,
2013-02-24 15:40:00,71.5,69.7,29.91,NW,312,0.0,0.0,94,0.00,,,0.00,Wunderground v.1.13,2013-02-24 20:40:00,
2013-02-24 15:50:00,71.8,70.0,29.91,NW,312,0.0,0.0,94,0.00,,,0.00,Wunderground v.1.13,2013-02-24 20:50:00,
2013-02-24 16:00:00,71.8,70.0,29.90,NW,312,0.0,0.0,94,0.00,,,0.00,Wunderground v.1.13,2013-02-24 21:00:00,
2013-02-24 16:10:00,72.3,70.2,29.90,NW,312,0.0,0.0,93,0.00,,,0.00,Wunderground v.1.13,2013-02-24 21:10:00,
2013-02-24 16:20:00,72.3,69.8,29.90,NW,309,0.0,0.0,92,0.00,,,0.00,Wunderground v.1.13,2013-02-24 21:20:00,
2013-02-24 16:30:00,72.3,70.2,29.90,NW,309,0.0,0.0,93,0.00,,,0.00,Wunderground v.1.13,2013-02-24 21:30:00,
2013-02-24 16:40:00,72.3,70.2,29.90,WSW,256,0.0,0.0,93,0.00,,,0.00,Wunderground v.1.13,2013-02-24 21:40:00,
2013-02-24 16:50:00,72.1,70.0,29.90,West,267,0.0,0.0,93,0.00,,,0.00,Wunderground v.1.13,2013-02-24 21:50:00,
2013-02-24 17:00:00,72.0,70.2,29.91,WNW,289,0.0,0.0,94,0.00,,,0.00,Wunderground v.1.13,2013-02-24 22:00:00,
2013-02-24 17:10:00,72.0,70.2,29.91,WNW,289,0.0,0.0,94,0.00,,,0.00,Wunderground v.1.13,2013-02-24 22:10:00,
2013-02-24 17:20:00,71.8,70.0,29.90,WNW,289,0.0,0.0,94,0.00,,,0.00,Wunderground v.1.13,2013-02-24 22:20:00,
2013-02-24 17:30:00,71.5,70.0,29.89,WNW,289,0.0,0.0,95,0.00,,,0.00,Wunderground v.1.13,2013-02-24 22:30:00,
2013-02-24 17:40:00,71.6,70.1,29.89,WNW,289,0.0,0.0,95,0.00,,,0.00,Wunderground v.1.13,2013-02-24 22:40:00,
2013-02-24 17:50:00,71.6,70.1,29.90,WNW,289,0.0,0.0,95,0.00,,,0.00,Wunderground v.1.13,2013-02-24 22:50:00,
2013-02-24 18:00:00,71.6,70.1,29.90,WNW,289,0.0,0.0,95,0.00,,,0.00,Wunderground v.1.13,2013-02-24 23:00:00,
2013-02-24 18:10:00,71.3,69.8,29.90,WNW,289,0.0,0.0,95,0.00,,,0.00,Wunderground v.1.13,2013-02-24 23:10:00,
2013-02-24 18:20:00,70.8,69.3,29.91,WNW,289,0.0,0.0,95,0.00,,,0.00,Wunderground v.1.13,2013-02-24 23:20:00,
2013-02-24 18:30:00,70.4,69.2,29.91,WNW,289,0.0,0.0,96,0.00,,,0.00,Wunderground v.1.13,2013-02-24 23:30:00,
2013-02-24 18:40:00,70.1,68.9,29.91,WNW,289,0.0,0.0,96,0.00,,,0.00,Wunderground v.1.13,2013-02-24 23:40:00,
2013-02-24 18:50:00,69.9,68.7,29.92,WNW,289,0.0,0.0,96,0.00,,,0.00,Wunderground v.1.13,2013-02-24 23:50:00,
2013-02-24 19:00:00,69.6,68.7,29.92,WNW,289,0.0,0.0,97,0.00,,,0.00,Wunderground v.1.13,2013-02-25 00:00:00,
2013-02-24 19:10:00,69.4,68.5,29.92,WNW,289,0.0,0.0,97,0.00,,,0.00,Wunderground v.1.13,2013-02-25 00:10:00,
2013-02-24 19:20:00,69.3,68.4,29.92,WNW,289,0.0,0.0,97,0.00,,,0.00,Wunderground v.1.13,2013-02-25 00:20:00,
2013-02-24 19:30:00,68.9,68.0,29.93,WNW,289,0.0,0.0,97,0.00,,,0.00,Wunderground v.1.13,2013-02-25 00:30:00,
2013-02-24 19:40:00,68.9,68.0,29.93,WNW,289,0.0,0.0,97,0.00,,,0.00,Wunderground v.1.13,2013-02-25 00:40:00,
2013-02-24 19:50:00,68.9,68.3,29.92,WNW,289,0.0,0.0,98,0.00,,,0.00,Wunderground v.1.13,2013-02-25 00:50:00,
2013-02-24 20:00:00,68.9,68.3,29.93,WNW,289,0.0,0.0,98,0.00,,,0.00,Wunderground v.1.13,2013-02-25 01:00:00,
2013-02-24 20:10:00,68.8,68.2,29.93,WNW,289,0.0,0.0,98,0.00,,,0.00,Wunderground v.1.13,2013-02-25 01:10:00,
2013-02-24 20:20:00,68.8,68.2,29.93,WNW,289,0.0,0.0,98,0.00,,,0.00,Wunderground v.1.13,2013-02-25 01:20:00,
2013-02-24 20:30:00,68.4,67.8,29.93,WNW,289,0.0,0.0,98,0.00,,,0.00,Wunderground v.1.13,2013-02-25 01:30:00,
2013-02-24 20:40:00,68.4,67.8,29.93,WNW,289,0.0,0.0,98,0.00,,,0.00,Wunderground v.1.13,2013-02-25 01:40:00,
2013-02-24 20:50:00,68.4,68.1,29.93,WNW,289,0.0,0.0,99,0.00,,,0.00,Wunderground v.1.13,2013-02-25 01:50:00,
2013-02-24 21:00:00,68.6,68.3,29.93,WNW,289,0.0,0.0,99,0.00,,,0.00,Wunderground v.1.13,2013-02-25 02:00:00,
2013-02-24 21:10:00,68.6,68.3,29.93,WNW,289,0.0,0.0,99,0.00,,,0.00,Wunderground v.1.13,2013-02-25 02:10:00,
2013-02-24 21:20:00,68.6,68.3,29.92,WNW,289,0.0,0.0,99,0.00,,,0.00,Wunderground v.1.13,2013-02-25 02:20:00,
2013-02-24 21:30:00,68.4,68.1,29.93,WNW,289,0.0,0.0,99,0.00,,,0.00,Wunderground v.1.13,2013-02-25 02:30:00,
2013-02-24 21:40:00,68.6,68.3,29.93,WNW,289,0.0,0.0,99,0.00,,,0.00,Wunderground v.1.13,2013-02-25 02:40:00,
2013-02-24 21:50:00,68.6,68.3,29.91,WNW,289,0.0,0.0,99,0.00,,,0.00,Wunderground v.1.13,2013-02-25 02:50:00,
2013-02-24 22:00:00,68.4,68.1,29.91,WNW,289,0.0,0.0,99,0.00,,,0.00,Wunderground v.1.13,2013-02-25 03:00:00,
2013-02-24 22:10:00,68.4,68.1,29.91,WNW,289,0.0,0.0,99,0.00,,,0.00,Wunderground v.1.13,2013-02-25 03:10:00,
2013-02-24 22:20:00,68.6,68.6,29.91,WNW,289,0.0,0.0,100,0.00,,,0.00,Wunderground v.1.13,2013-02-25 03:20:00,
2013-02-24 22:30:00,68.6,68.3,29.91,WNW,289,0.0,0.0,99,0.00,,,0.00,Wunderground v.1.13,2013-02-25 03:30:00,
2013-02-24 22:40:00,68.6,68.6,29.91,WNW,289,0.0,0.0,100,0.00,,,0.00,Wunderground v.1.13,2013-02-25 03:40:00,
2013-02-24 22:50:00,69.1,69.1,29.90,WNW,285,0.0,0.0,100,0.00,,,0.00,Wunderground v.1.13,2013-02-25 03:50:00,
2013-02-24 23:00:00,69.1,69.1,29.91,WNW,285,0.0,0.0,100,0.00,,,0.00,Wunderground v.1.13,2013-02-25 04:00:00,
2013-02-24 23:10:00,-999.9,-99.9,29.91,North,32767,-999.0,0.0,255,-99.99,,,0.00,Wunderground v.1.13,2013-02-25 04:10:00,
2013-02-24 23:20:00,-999.9,-99.9,29.91,North,32767,-999.0,0.0,255,-99.99,,,0.00,Wunderground v.1.13,2013-02-25 04:20:00,
2013-02-24 23:30:00,-999.9,-99.9,29.90,North,32767,-999.0,0.0,255,-99.99,,,0.00,Wunderground v.1.13,2013-02-25 04:30:00,
2013-02-24 23:40:00,-999.9,-99.9,29.90,North,32767,-999.0,0.0,255,-99.99,,,0.00,Wunderground v.1.13,2013-02-25 04:40:00,
2013-02-24 23:50:00,-999.9,-99.9,29.89,North,32767,-999.0,0.0,255,-99.99,,,0.00,Wunderground v.1.13,2013-02-25 04:50:00,